sensor_id;sensor_type;location;lat;lon;timestamp;temperature;humidity
16955;DHT22;8594;52.052;8.354;2023-02-08T00:01:52;2.50;99.90
16955;DHT22;8594;52.052;8.354;2023-02-08T00:04:19;2.50;99.90
16955;DHT22;8594;52.052;8.354;2023-02-08T00:06:46;2.50;99.90
16955;DHT22;8594;52.052;8.354;2023-02-08T00:09:13;2.60;99.90
16955;DHT22;8594;52.052;8.354;2023-02-08T00:11:41;2.50;99.90
16955;DHT22;8594;52.052;8.354;2023-02-08T00:14:08;2.70;99.90
16955;DHT22;8594;52.052;8.354;2023-02-08T00:16:35;2.60;99.90
16955;DHT22;8594;52.052;8.354;2023-02-08T00:19:01;2.50;99.90
16955;DHT22;8594;52.052;8.354;2023-02-08T00:21:28;2.50;99.90
16955;DHT22;8594;52.052;8.354;2023-02-08T00:23:55;2.60;99.90
16955;DHT22;8594;52.052;8.354;2023-02-08T00:26:22;2.50;99.90
16955;DHT22;8594;52.052;8.354;2023-02-08T00:28:50;2.30;99.90
16955;DHT22;8594;52.052;8.354;2023-02-08T00:31:17;2.30;99.90
16955;DHT22;8594;52.052;8.354;2023-02-08T00:33:44;2.30;99.90
16955;DHT22;8594;52.052;8.354;2023-02-08T00:36:11;2.30;99.90
16955;DHT22;8594;52.052;8.354;2023-02-08T00:38:38;2.30;99.90
16955;DHT22;8594;52.052;8.354;2023-02-08T00:41:05;2.30;99.90
16955;DHT22;8594;52.052;8.354;2023-02-08T00:43:32;2.30;99.90
16955;DHT22;8594;52.052;8.354;2023-02-08T00:46:01;2.20;99.90
16955;DHT22;8594;52.052;8.354;2023-02-08T00:48:28;2.20;99.90
16955;DHT22;8594;52.052;8.354;2023-02-08T00:51:00;2.30;99.90
16955;DHT22;8594;52.052;8.354;2023-02-08T00:53:28;2.80;99.90
16955;DHT22;8594;52.052;8.354;2023-02-08T00:55:56;3.00;99.90
16955;DHT22;8594;52.052;8.354;2023-02-08T00:58:23;2.90;99.90
16955;DHT22;8594;52.052;8.354;2023-02-08T01:00:50;2.90;99.90
16955;DHT22;8594;52.052;8.354;2023-02-08T01:03:20;2.90;99.90
16955;DHT22;8594;52.052;8.354;2023-02-08T01:05:47;2.80;99.90
16955;DHT22;8594;52.052;8.354;2023-02-08T01:08:14;2.80;99.90
16955;DHT22;8594;52.052;8.354;2023-02-08T01:10:41;2.70;99.90
16955;DHT22;8594;52.052;8.354;2023-02-08T01:13:08;2.60;99.90
16955;DHT22;8594;52.052;8.354;2023-02-08T01:15:35;2.60;99.90
16955;DHT22;8594;52.052;8.354;2023-02-08T01:18:02;2.50;99.90
16955;DHT22;8594;52.052;8.354;2023-02-08T01:20:33;2.30;99.90
16955;DHT22;8594;52.052;8.354;2023-02-08T01:23:01;2.20;99.90
16955;DHT22;8594;52.052;8.354;2023-02-08T01:25:28;2.30;99.90
16955;DHT22;8594;52.052;8.354;2023-02-08T01:27:55;2.30;99.90
16955;DHT22;8594;52.052;8.354;2023-02-08T01:30:22;2.10;99.90
16955;DHT22;8594;52.052;8.354;2023-02-08T01:32:49;1.80;99.90
16955;DHT22;8594;52.052;8.354;2023-02-08T01:35:16;1.60;99.90
16955;DHT22;8594;52.052;8.354;2023-02-08T01:37:44;1.50;99.90
16955;DHT22;8594;52.052;8.354;2023-02-08T01:40:11;1.30;99.90
16955;DHT22;8594;52.052;8.354;2023-02-08T01:42:38;1.30;99.90
16955;DHT22;8594;52.052;8.354;2023-02-08T01:45:26;1.50;99.90
16955;DHT22;8594;52.052;8.354;2023-02-08T01:48:03;2.00;99.90
16955;DHT22;8594;52.052;8.354;2023-02-08T01:50:43;2.10;99.90
16955;DHT22;8594;52.052;8.354;2023-02-08T01:53:15;2.10;99.90
16955;DHT22;8594;52.052;8.354;2023-02-08T01:55:46;2.00;99.90
16955;DHT22;8594;52.052;8.354;2023-02-08T01:58:17;1.80;99.90
16955;DHT22;8594;52.052;8.354;2023-02-08T02:00:46;1.70;99.90
16955;DHT22;8594;52.052;8.354;2023-02-08T02:03:14;1.50;99.90
16955;DHT22;8594;52.052;8.354;2023-02-08T02:05:52;1.40;99.90
16955;DHT22;8594;52.052;8.354;2023-02-08T02:08:22;1.40;99.90
16955;DHT22;8594;52.052;8.354;2023-02-08T02:10:49;1.40;99.90
16955;DHT22;8594;52.052;8.354;2023-02-08T02:13:17;1.70;99.90
16955;DHT22;8594;52.052;8.354;2023-02-08T02:15:46;1.70;99.90
16955;DHT22;8594;52.052;8.354;2023-02-08T02:18:21;1.90;99.90
16955;DHT22;8594;52.052;8.354;2023-02-08T02:21:01;1.80;99.90
16955;DHT22;8594;52.052;8.354;2023-02-08T02:24:05;2.00;99.90
16955;DHT22;8594;52.052;8.354;2023-02-08T02:27:07;2.10;99.90
16955;DHT22;8594;52.052;8.354;2023-02-08T02:30:16;2.00;99.90
16955;DHT22;8594;52.052;8.354;2023-02-08T02:33:16;2.00;99.90
16955;DHT22;8594;52.052;8.354;2023-02-08T02:35:57;2.00;99.90
16955;DHT22;8594;52.052;8.354;2023-02-08T02:38:36;1.80;99.90
16955;DHT22;8594;52.052;8.354;2023-02-08T02:41:21;1.50;99.90
16955;DHT22;8594;52.052;8.354;2023-02-08T02:44:22;1.70;99.90
16955;DHT22;8594;52.052;8.354;2023-02-08T02:47:09;2.00;99.90
16955;DHT22;8594;52.052;8.354;2023-02-08T02:49:48;2.00;99.90
16955;DHT22;8594;52.052;8.354;2023-02-08T02:52:20;2.10;99.90
16955;DHT22;8594;52.052;8.354;2023-02-08T02:54:54;2.00;99.90
16955;DHT22;8594;52.052;8.354;2023-02-08T02:57:27;1.80;99.90
16955;DHT22;8594;52.052;8.354;2023-02-08T02:59:58;1.90;99.90
16955;DHT22;8594;52.052;8.354;2023-02-08T03:02:26;2.00;99.90
16955;DHT22;8594;52.052;8.354;2023-02-08T03:04:55;1.90;99.90
16955;DHT22;8594;52.052;8.354;2023-02-08T03:07:44;1.90;99.90
16955;DHT22;8594;52.052;8.354;2023-02-08T03:10:32;1.80;99.90
16955;DHT22;8594;52.052;8.354;2023-02-08T03:13:21;2.10;99.90
16955;DHT22;8594;52.052;8.354;2023-02-08T03:16:00;2.20;99.90
16955;DHT22;8594;52.052;8.354;2023-02-08T03:18:37;2.30;99.90
16955;DHT22;8594;52.052;8.354;2023-02-08T03:21:25;2.00;99.90
16955;DHT22;8594;52.052;8.354;2023-02-08T03:24:07;2.00;99.90
16955;DHT22;8594;52.052;8.354;2023-02-08T03:26:47;2.00;99.90
16955;DHT22;8594;52.052;8.354;2023-02-08T03:29:25;1.90;99.90
16955;DHT22;8594;52.052;8.354;2023-02-08T03:32:07;1.80;99.90
16955;DHT22;8594;52.052;8.354;2023-02-08T03:34:42;1.80;99.90
16955;DHT22;8594;52.052;8.354;2023-02-08T03:37:19;1.80;99.90
16955;DHT22;8594;52.052;8.354;2023-02-08T03:39:50;1.80;99.90
16955;DHT22;8594;52.052;8.354;2023-02-08T03:42:25;1.70;99.90
16955;DHT22;8594;52.052;8.354;2023-02-08T03:44:59;1.70;99.90
16955;DHT22;8594;52.052;8.354;2023-02-08T03:47:34;1.60;99.90
16955;DHT22;8594;52.052;8.354;2023-02-08T03:50:07;1.60;99.90
16955;DHT22;8594;52.052;8.354;2023-02-08T03:52:38;1.60;99.90
16955;DHT22;8594;52.052;8.354;2023-02-08T03:55:09;1.60;99.90
16955;DHT22;8594;52.052;8.354;2023-02-08T03:57:43;1.50;99.90
16955;DHT22;8594;52.052;8.354;2023-02-08T04:00:15;1.50;99.90
16955;DHT22;8594;52.052;8.354;2023-02-08T04:02:49;1.50;99.90
16955;DHT22;8594;52.052;8.354;2023-02-08T04:05:20;1.40;99.90
16955;DHT22;8594;52.052;8.354;2023-02-08T04:07:50;1.40;99.90
16955;DHT22;8594;52.052;8.354;2023-02-08T04:10:17;1.40;99.90
16955;DHT22;8594;52.052;8.354;2023-02-08T04:12:46;1.40;99.90
16955;DHT22;8594;52.052;8.354;2023-02-08T04:15:14;1.50;99.90
16955;DHT22;8594;52.052;8.354;2023-02-08T04:17:41;1.40;99.90
16955;DHT22;8594;52.052;8.354;2023-02-08T04:20:09;1.50;99.90
16955;DHT22;8594;52.052;8.354;2023-02-08T04:22:37;1.30;99.90
16955;DHT22;8594;52.052;8.354;2023-02-08T04:25:05;1.00;99.90
16955;DHT22;8594;52.052;8.354;2023-02-08T04:27:32;1.10;99.90
16955;DHT22;8594;52.052;8.354;2023-02-08T04:29:59;1.10;99.90
16955;DHT22;8594;52.052;8.354;2023-02-08T04:32:26;1.10;99.90
16955;DHT22;8594;52.052;8.354;2023-02-08T04:34:52;1.10;99.90
16955;DHT22;8594;52.052;8.354;2023-02-08T04:37:19;1.20;99.90
16955;DHT22;8594;52.052;8.354;2023-02-08T04:39:46;1.30;99.90
16955;DHT22;8594;52.052;8.354;2023-02-08T04:42:14;1.10;99.90
16955;DHT22;8594;52.052;8.354;2023-02-08T04:44:42;1.10;99.90
16955;DHT22;8594;52.052;8.354;2023-02-08T04:47:09;1.20;99.90
16955;DHT22;8594;52.052;8.354;2023-02-08T04:49:36;1.20;99.90
16955;DHT22;8594;52.052;8.354;2023-02-08T04:52:03;0.90;99.90
16955;DHT22;8594;52.052;8.354;2023-02-08T04:54:30;1.00;99.90
16955;DHT22;8594;52.052;8.354;2023-02-08T04:56:57;0.90;99.90
16955;DHT22;8594;52.052;8.354;2023-02-08T04:59:25;0.90;99.90
16955;DHT22;8594;52.052;8.354;2023-02-08T05:01:52;0.90;99.90
16955;DHT22;8594;52.052;8.354;2023-02-08T05:04:19;0.90;99.90
16955;DHT22;8594;52.052;8.354;2023-02-08T05:06:46;0.80;99.90
16955;DHT22;8594;52.052;8.354;2023-02-08T05:09:13;0.90;99.90
16955;DHT22;8594;52.052;8.354;2023-02-08T05:11:39;0.90;99.90
16955;DHT22;8594;52.052;8.354;2023-02-08T05:14:06;0.80;99.90
16955;DHT22;8594;52.052;8.354;2023-02-08T05:16:34;0.80;99.90
16955;DHT22;8594;52.052;8.354;2023-02-08T05:19:02;0.90;99.90
16955;DHT22;8594;52.052;8.354;2023-02-08T05:21:29;1.00;99.90
16955;DHT22;8594;52.052;8.354;2023-02-08T05:23:56;0.90;99.90
16955;DHT22;8594;52.052;8.354;2023-02-08T05:26:23;0.90;99.90
16955;DHT22;8594;52.052;8.354;2023-02-08T05:28:50;0.70;99.90
16955;DHT22;8594;52.052;8.354;2023-02-08T05:31:19;0.60;99.90
16955;DHT22;8594;52.052;8.354;2023-02-08T05:33:49;0.50;99.90
16955;DHT22;8594;52.052;8.354;2023-02-08T05:36:17;0.50;99.90
16955;DHT22;8594;52.052;8.354;2023-02-08T05:38:45;0.70;99.90
16955;DHT22;8594;52.052;8.354;2023-02-08T05:41:11;0.80;99.90
16955;DHT22;8594;52.052;8.354;2023-02-08T05:43:38;0.90;99.90
16955;DHT22;8594;52.052;8.354;2023-02-08T05:46:06;0.90;99.90
16955;DHT22;8594;52.052;8.354;2023-02-08T05:48:33;1.00;99.90
16955;DHT22;8594;52.052;8.354;2023-02-08T05:51:02;1.00;99.90
16955;DHT22;8594;52.052;8.354;2023-02-08T05:53:29;0.90;99.90
16955;DHT22;8594;52.052;8.354;2023-02-08T05:55:56;0.90;99.90
16955;DHT22;8594;52.052;8.354;2023-02-08T05:58:24;0.80;99.90
16955;DHT22;8594;52.052;8.354;2023-02-08T06:00:51;0.80;99.90
16955;DHT22;8594;52.052;8.354;2023-02-08T06:03:18;0.70;99.90
16955;DHT22;8594;52.052;8.354;2023-02-08T06:05:45;0.70;99.90
16955;DHT22;8594;52.052;8.354;2023-02-08T06:08:14;0.80;99.90
16955;DHT22;8594;52.052;8.354;2023-02-08T06:10:41;0.60;99.90
16955;DHT22;8594;52.052;8.354;2023-02-08T06:13:08;0.40;99.90
16955;DHT22;8594;52.052;8.354;2023-02-08T06:15:34;0.30;99.90
16955;DHT22;8594;52.052;8.354;2023-02-08T06:18:01;0.40;99.90
16955;DHT22;8594;52.052;8.354;2023-02-08T06:20:28;0.50;99.90
16955;DHT22;8594;52.052;8.354;2023-02-08T06:22:55;0.90;99.90
16955;DHT22;8594;52.052;8.354;2023-02-08T06:25:23;1.10;99.90
16955;DHT22;8594;52.052;8.354;2023-02-08T06:27:50;1.10;99.90
16955;DHT22;8594;52.052;8.354;2023-02-08T06:30:17;1.10;99.90
16955;DHT22;8594;52.052;8.354;2023-02-08T06:32:44;1.30;99.90
16955;DHT22;8594;52.052;8.354;2023-02-08T06:35:11;1.40;99.90
16955;DHT22;8594;52.052;8.354;2023-02-08T06:37:37;0.90;99.90
16955;DHT22;8594;52.052;8.354;2023-02-08T06:40:05;0.50;99.90
16955;DHT22;8594;52.052;8.354;2023-02-08T06:42:35;0.40;99.90
16955;DHT22;8594;52.052;8.354;2023-02-08T06:45:03;0.50;99.90
16955;DHT22;8594;52.052;8.354;2023-02-08T06:47:32;0.30;99.90
16955;DHT22;8594;52.052;8.354;2023-02-08T06:49:59;0.60;99.90
16955;DHT22;8594;52.052;8.354;2023-02-08T06:52:26;0.90;99.90
16955;DHT22;8594;52.052;8.354;2023-02-08T06:54:52;0.70;99.90
16955;DHT22;8594;52.052;8.354;2023-02-08T06:57:19;0.40;99.90
16955;DHT22;8594;52.052;8.354;2023-02-08T06:59:47;0.30;99.90
16955;DHT22;8594;52.052;8.354;2023-02-08T07:02:16;0.30;99.90
16955;DHT22;8594;52.052;8.354;2023-02-08T07:04:45;0.50;99.90
16955;DHT22;8594;52.052;8.354;2023-02-08T07:07:12;0.50;99.90
16955;DHT22;8594;52.052;8.354;2023-02-08T07:09:40;0.50;99.90
16955;DHT22;8594;52.052;8.354;2023-02-08T07:12:08;0.60;99.90
16955;DHT22;8594;52.052;8.354;2023-02-08T07:14:37;0.70;99.90
16955;DHT22;8594;52.052;8.354;2023-02-08T07:17:07;0.70;99.90
16955;DHT22;8594;52.052;8.354;2023-02-08T07:19:35;0.70;99.90
16955;DHT22;8594;52.052;8.354;2023-02-08T07:22:02;0.80;99.90
16955;DHT22;8594;52.052;8.354;2023-02-08T07:24:33;1.00;99.90
16955;DHT22;8594;52.052;8.354;2023-02-08T07:27:00;1.20;99.90
16955;DHT22;8594;52.052;8.354;2023-02-08T07:29:28;1.30;99.90
16955;DHT22;8594;52.052;8.354;2023-02-08T07:31:56;1.50;99.90
16955;DHT22;8594;52.052;8.354;2023-02-08T07:34:24;1.80;99.90
16955;DHT22;8594;52.052;8.354;2023-02-08T07:36:51;2.30;99.90
16955;DHT22;8594;52.052;8.354;2023-02-08T07:39:18;2.70;99.90
16955;DHT22;8594;52.052;8.354;2023-02-08T07:41:46;2.70;99.90
16955;DHT22;8594;52.052;8.354;2023-02-08T07:44:13;2.70;99.90
16955;DHT22;8594;52.052;8.354;2023-02-08T07:46:39;2.70;99.90
16955;DHT22;8594;52.052;8.354;2023-02-08T07:49:06;2.60;99.90
16955;DHT22;8594;52.052;8.354;2023-02-08T07:51:35;2.60;99.90
16955;DHT22;8594;52.052;8.354;2023-02-08T07:54:02;2.60;99.90
16955;DHT22;8594;52.052;8.354;2023-02-08T07:56:29;3.20;99.90
16955;DHT22;8594;52.052;8.354;2023-02-08T07:58:56;3.70;99.90
16955;DHT22;8594;52.052;8.354;2023-02-08T08:01:23;4.20;99.90
16955;DHT22;8594;52.052;8.354;2023-02-08T08:03:50;4.80;99.90
16955;DHT22;8594;52.052;8.354;2023-02-08T08:06:18;5.30;99.90
16955;DHT22;8594;52.052;8.354;2023-02-08T08:08:47;5.80;99.90
16955;DHT22;8594;52.052;8.354;2023-02-08T08:11:16;6.30;99.90
16955;DHT22;8594;52.052;8.354;2023-02-08T08:13:43;6.50;99.90
16955;DHT22;8594;52.052;8.354;2023-02-08T08:16:10;7.10;99.90
16955;DHT22;8594;52.052;8.354;2023-02-08T08:18:37;7.50;99.90
16955;DHT22;8594;52.052;8.354;2023-02-08T08:21:05;7.90;99.90
16955;DHT22;8594;52.052;8.354;2023-02-08T08:23:32;8.40;99.90
16955;DHT22;8594;52.052;8.354;2023-02-08T08:26:05;8.80;99.90
16955;DHT22;8594;52.052;8.354;2023-02-08T08:28:34;8.80;99.90
16955;DHT22;8594;52.052;8.354;2023-02-08T08:31:01;9.30;99.90
16955;DHT22;8594;52.052;8.354;2023-02-08T08:33:28;9.70;97.90
16955;DHT22;8594;52.052;8.354;2023-02-08T08:35:55;9.90;94.90
16955;DHT22;8594;52.052;8.354;2023-02-08T08:38:22;9.80;93.90
16955;DHT22;8594;52.052;8.354;2023-02-08T08:40:48;9.90;92.50
16955;DHT22;8594;52.052;8.354;2023-02-08T08:43:17;10.30;90.90
16955;DHT22;8594;52.052;8.354;2023-02-08T08:45:43;10.30;90.20
16955;DHT22;8594;52.052;8.354;2023-02-08T08:48:11;10.20;89.60
16955;DHT22;8594;52.052;8.354;2023-02-08T08:50:38;10.50;87.60
16955;DHT22;8594;52.052;8.354;2023-02-08T08:53:07;10.60;87.10
16955;DHT22;8594;52.052;8.354;2023-02-08T08:55:34;10.70;85.90
16955;DHT22;8594;52.052;8.354;2023-02-08T08:58:01;10.90;85.80
16955;DHT22;8594;52.052;8.354;2023-02-08T09:00:29;11.30;86.00
16955;DHT22;8594;52.052;8.354;2023-02-08T09:02:56;11.40;85.30
16955;DHT22;8594;52.052;8.354;2023-02-08T09:05:23;11.70;81.90
16955;DHT22;8594;52.052;8.354;2023-02-08T09:07:49;11.90;84.60
16955;DHT22;8594;52.052;8.354;2023-02-08T09:10:16;12.80;82.80
16955;DHT22;8594;52.052;8.354;2023-02-08T09:12:43;12.80;82.60
16955;DHT22;8594;52.052;8.354;2023-02-08T09:15:10;13.30;77.70
16955;DHT22;8594;52.052;8.354;2023-02-08T09:17:40;13.40;78.80
16955;DHT22;8594;52.052;8.354;2023-02-08T09:20:09;13.10;76.80
16955;DHT22;8594;52.052;8.354;2023-02-08T09:22:36;13.20;76.00
16955;DHT22;8594;52.052;8.354;2023-02-08T09:25:03;13.30;78.00
16955;DHT22;8594;52.052;8.354;2023-02-08T09:27:32;13.20;76.10
16955;DHT22;8594;52.052;8.354;2023-02-08T09:29:58;13.40;76.40
16955;DHT22;8594;52.052;8.354;2023-02-08T09:32:25;13.40;74.70
16955;DHT22;8594;52.052;8.354;2023-02-08T09:34:53;13.80;74.60
16955;DHT22;8594;52.052;8.354;2023-02-08T09:37:22;13.70;75.60
16955;DHT22;8594;52.052;8.354;2023-02-08T09:39:48;13.50;76.50
16955;DHT22;8594;52.052;8.354;2023-02-08T09:42:28;13.60;77.30
16955;DHT22;8594;52.052;8.354;2023-02-08T09:48:11;13.70;73.60
16955;DHT22;8594;52.052;8.354;2023-02-08T09:50:47;14.40;73.00
16955;DHT22;8594;52.052;8.354;2023-02-08T09:53:21;13.90;72.10
16955;DHT22;8594;52.052;8.354;2023-02-08T09:55:56;14.70;68.20
16955;DHT22;8594;52.052;8.354;2023-02-08T09:58:32;14.40;64.40
16955;DHT22;8594;52.052;8.354;2023-02-08T10:01:03;14.70;62.30
16955;DHT22;8594;52.052;8.354;2023-02-08T10:03:35;14.30;60.30
16955;DHT22;8594;52.052;8.354;2023-02-08T10:06:06;13.50;63.50
16955;DHT22;8594;52.052;8.354;2023-02-08T10:08:36;13.10;63.00
16955;DHT22;8594;52.052;8.354;2023-02-08T10:11:13;12.90;63.90
16955;DHT22;8594;52.052;8.354;2023-02-08T10:17:00;12.70;63.10
16955;DHT22;8594;52.052;8.354;2023-02-08T10:19:48;12.20;65.80
16955;DHT22;8594;52.052;8.354;2023-02-08T10:22:36;11.70;65.80
16955;DHT22;8594;52.052;8.354;2023-02-08T10:25:32;11.80;66.50
16955;DHT22;8594;52.052;8.354;2023-02-08T10:28:29;11.50;64.10
16955;DHT22;8594;52.052;8.354;2023-02-08T10:31:16;11.40;62.50
16955;DHT22;8594;52.052;8.354;2023-02-08T10:34:00;11.50;63.20
16955;DHT22;8594;52.052;8.354;2023-02-08T10:36:31;11.70;62.60
16955;DHT22;8594;52.052;8.354;2023-02-08T10:39:08;11.80;61.10
16955;DHT22;8594;52.052;8.354;2023-02-08T10:41:43;11.50;62.00
16955;DHT22;8594;52.052;8.354;2023-02-08T10:44:19;11.80;62.10
16955;DHT22;8594;52.052;8.354;2023-02-08T10:46:58;11.80;62.40
16955;DHT22;8594;52.052;8.354;2023-02-08T10:49:38;12.10;61.20
16955;DHT22;8594;52.052;8.354;2023-02-08T10:52:11;12.30;59.80
16955;DHT22;8594;52.052;8.354;2023-02-08T10:54:40;12.20;59.10
16955;DHT22;8594;52.052;8.354;2023-02-08T10:57:13;12.30;59.70
16955;DHT22;8594;52.052;8.354;2023-02-08T10:59:47;12.30;59.10
16955;DHT22;8594;52.052;8.354;2023-02-08T11:02:21;12.40;58.50
16955;DHT22;8594;52.052;8.354;2023-02-08T11:04:57;12.60;59.90
16955;DHT22;8594;52.052;8.354;2023-02-08T11:07:26;12.70;58.50
16955;DHT22;8594;52.052;8.354;2023-02-08T11:10:20;12.40;59.60
16955;DHT22;8594;52.052;8.354;2023-02-08T11:12:57;12.50;58.00
16955;DHT22;8594;52.052;8.354;2023-02-08T11:15:28;12.40;58.20
16955;DHT22;8594;52.052;8.354;2023-02-08T11:18:00;12.10;59.50
16955;DHT22;8594;52.052;8.354;2023-02-08T11:20:32;12.00;60.10
16955;DHT22;8594;52.052;8.354;2023-02-08T11:23:02;12.40;59.00
16955;DHT22;8594;52.052;8.354;2023-02-08T11:25:35;12.20;56.10
16955;DHT22;8594;52.052;8.354;2023-02-08T11:28:04;12.20;56.20
16955;DHT22;8594;52.052;8.354;2023-02-08T11:30:54;12.20;56.90
16955;DHT22;8594;52.052;8.354;2023-02-08T11:33:26;12.20;56.90
16955;DHT22;8594;52.052;8.354;2023-02-08T11:35:59;12.20;55.60
16955;DHT22;8594;52.052;8.354;2023-02-08T11:38:30;12.30;56.40
16955;DHT22;8594;52.052;8.354;2023-02-08T11:41:04;12.30;56.40
16955;DHT22;8594;52.052;8.354;2023-02-08T11:43:40;12.40;54.90
16955;DHT22;8594;52.052;8.354;2023-02-08T11:46:09;12.10;54.10
16955;DHT22;8594;52.052;8.354;2023-02-08T11:48:41;11.70;55.50
16955;DHT22;8594;52.052;8.354;2023-02-08T11:51:14;11.50;55.50
16955;DHT22;8594;52.052;8.354;2023-02-08T11:53:52;11.80;54.30
16955;DHT22;8594;52.052;8.354;2023-02-08T11:56:22;11.70;54.50
16955;DHT22;8594;52.052;8.354;2023-02-08T11:59:00;12.00;55.10
16955;DHT22;8594;52.052;8.354;2023-02-08T12:01:34;12.20;54.40
16955;DHT22;8594;52.052;8.354;2023-02-08T12:04:04;12.30;53.00
16955;DHT22;8594;52.052;8.354;2023-02-08T12:07:03;12.50;52.40
16955;DHT22;8594;52.052;8.354;2023-02-08T12:10:17;12.50;52.90
16955;DHT22;8594;52.052;8.354;2023-02-08T12:13:10;13.10;52.00
16955;DHT22;8594;52.052;8.354;2023-02-08T12:16:04;13.20;52.60
16955;DHT22;8594;52.052;8.354;2023-02-08T12:18:51;13.50;51.60
16955;DHT22;8594;52.052;8.354;2023-02-08T12:21:32;13.30;50.70
16955;DHT22;8594;52.052;8.354;2023-02-08T12:24:06;13.30;51.90
16955;DHT22;8594;52.052;8.354;2023-02-08T12:26:49;13.30;49.90
16955;DHT22;8594;52.052;8.354;2023-02-08T12:29:37;13.10;50.50
16955;DHT22;8594;52.052;8.354;2023-02-08T12:35:31;13.10;50.50
16955;DHT22;8594;52.052;8.354;2023-02-08T12:38:16;13.00;50.40
16955;DHT22;8594;52.052;8.354;2023-02-08T12:41:13;12.70;51.80
16955;DHT22;8594;52.052;8.354;2023-02-08T12:43:53;13.00;50.60
16955;DHT22;8594;52.052;8.354;2023-02-08T12:49:42;13.00;51.00
16955;DHT22;8594;52.052;8.354;2023-02-08T12:52:25;12.60;51.20
16955;DHT22;8594;52.052;8.354;2023-02-08T12:55:02;12.50;52.80
16955;DHT22;8594;52.052;8.354;2023-02-08T12:57:37;12.60;53.60
16955;DHT22;8594;52.052;8.354;2023-02-08T13:00:15;12.20;54.10
16955;DHT22;8594;52.052;8.354;2023-02-08T13:02:49;12.50;54.90
16955;DHT22;8594;52.052;8.354;2023-02-08T13:05:25;13.00;55.40
16955;DHT22;8594;52.052;8.354;2023-02-08T13:08:00;12.80;61.70
16955;DHT22;8594;52.052;8.354;2023-02-08T13:10:34;12.70;63.60
16955;DHT22;8594;52.052;8.354;2023-02-08T13:13:10;12.60;67.20
16955;DHT22;8594;52.052;8.354;2023-02-08T13:15:43;12.60;67.70
16955;DHT22;8594;52.052;8.354;2023-02-08T13:18:15;12.00;68.30
16955;DHT22;8594;52.052;8.354;2023-02-08T13:20:50;11.90;70.60
16955;DHT22;8594;52.052;8.354;2023-02-08T13:23:23;11.50;70.80
16955;DHT22;8594;52.052;8.354;2023-02-08T13:25:54;11.20;73.00
16955;DHT22;8594;52.052;8.354;2023-02-08T13:28:25;11.00;74.00
16955;DHT22;8594;52.052;8.354;2023-02-08T13:30:57;11.10;74.90
16955;DHT22;8594;52.052;8.354;2023-02-08T13:33:34;10.90;76.00
16955;DHT22;8594;52.052;8.354;2023-02-08T13:36:20;10.70;78.10
16955;DHT22;8594;52.052;8.354;2023-02-08T13:38:51;10.70;78.80
16955;DHT22;8594;52.052;8.354;2023-02-08T13:41:21;10.40;78.80
16955;DHT22;8594;52.052;8.354;2023-02-08T13:43:52;10.30;78.40
16955;DHT22;8594;52.052;8.354;2023-02-08T13:46:22;10.40;77.80
16955;DHT22;8594;52.052;8.354;2023-02-08T13:48:53;10.30;77.90
16955;DHT22;8594;52.052;8.354;2023-02-08T13:51:51;10.20;79.60
16955;DHT22;8594;52.052;8.354;2023-02-08T13:54:19;10.00;78.10
16955;DHT22;8594;52.052;8.354;2023-02-08T13:56:47;9.90;80.80
16955;DHT22;8594;52.052;8.354;2023-02-08T13:59:25;9.80;83.20
16955;DHT22;8594;52.052;8.354;2023-02-08T14:02:20;9.80;83.50
16955;DHT22;8594;52.052;8.354;2023-02-08T14:04:51;9.70;83.10
16955;DHT22;8594;52.052;8.354;2023-02-08T14:07:38;9.70;84.10
16955;DHT22;8594;52.052;8.354;2023-02-08T14:10:21;9.60;85.20
16955;DHT22;8594;52.052;8.354;2023-02-08T14:13:00;9.60;85.00
16955;DHT22;8594;52.052;8.354;2023-02-08T14:15:35;9.60;84.20
16955;DHT22;8594;52.052;8.354;2023-02-08T14:18:17;9.60;84.90
16955;DHT22;8594;52.052;8.354;2023-02-08T14:21:01;9.40;85.60
16955;DHT22;8594;52.052;8.354;2023-02-08T14:23:35;9.30;86.80
16955;DHT22;8594;52.052;8.354;2023-02-08T14:26:08;9.20;84.20
16955;DHT22;8594;52.052;8.354;2023-02-08T14:28:45;9.20;85.10
16955;DHT22;8594;52.052;8.354;2023-02-08T14:31:19;9.00;85.50
16955;DHT22;8594;52.052;8.354;2023-02-08T14:33:52;8.80;85.90
16955;DHT22;8594;52.052;8.354;2023-02-08T14:36:27;8.80;86.70
16955;DHT22;8594;52.052;8.354;2023-02-08T14:39:20;8.70;86.70
16955;DHT22;8594;52.052;8.354;2023-02-08T14:41:51;8.30;87.60
16955;DHT22;8594;52.052;8.354;2023-02-08T14:44:58;8.40;88.10
16955;DHT22;8594;52.052;8.354;2023-02-08T14:47:52;8.30;88.60
16955;DHT22;8594;52.052;8.354;2023-02-08T14:50:29;8.20;88.70
16955;DHT22;8594;52.052;8.354;2023-02-08T14:53:05;8.50;88.20
16955;DHT22;8594;52.052;8.354;2023-02-08T14:55:46;8.40;88.20
16955;DHT22;8594;52.052;8.354;2023-02-08T14:58:25;8.40;88.20
16955;DHT22;8594;52.052;8.354;2023-02-08T15:00:58;8.30;88.70
16955;DHT22;8594;52.052;8.354;2023-02-08T15:03:29;8.20;88.90
16955;DHT22;8594;52.052;8.354;2023-02-08T15:09:20;8.20;90.00
16955;DHT22;8594;52.052;8.354;2023-02-08T15:11:59;8.30;89.30
16955;DHT22;8594;52.052;8.354;2023-02-08T15:14:29;8.40;89.40
16955;DHT22;8594;52.052;8.354;2023-02-08T15:16:57;8.40;87.40
16955;DHT22;8594;52.052;8.354;2023-02-08T15:19:26;8.30;86.10
16955;DHT22;8594;52.052;8.354;2023-02-08T15:22:15;8.30;85.80
16955;DHT22;8594;52.052;8.354;2023-02-08T15:24:50;8.30;87.60
16955;DHT22;8594;52.052;8.354;2023-02-08T15:27:24;8.30;87.80
16955;DHT22;8594;52.052;8.354;2023-02-08T15:29:53;8.20;87.90
16955;DHT22;8594;52.052;8.354;2023-02-08T15:32:22;8.40;88.70
16955;DHT22;8594;52.052;8.354;2023-02-08T15:34:53;8.20;88.60
16955;DHT22;8594;52.052;8.354;2023-02-08T15:37:21;8.20;89.10
16955;DHT22;8594;52.052;8.354;2023-02-08T15:39:51;8.20;88.30
16955;DHT22;8594;52.052;8.354;2023-02-08T15:42:24;8.00;89.10
16955;DHT22;8594;52.052;8.354;2023-02-08T15:44:53;8.10;89.30
16955;DHT22;8594;52.052;8.354;2023-02-08T15:47:24;7.90;88.60
16955;DHT22;8594;52.052;8.354;2023-02-08T15:49:53;7.80;89.90
16955;DHT22;8594;52.052;8.354;2023-02-08T15:52:23;7.80;88.30
16955;DHT22;8594;52.052;8.354;2023-02-08T15:54:51;8.00;88.90
16955;DHT22;8594;52.052;8.354;2023-02-08T15:57:33;8.00;87.00
16955;DHT22;8594;52.052;8.354;2023-02-08T16:00:05;8.10;86.50
16955;DHT22;8594;52.052;8.354;2023-02-08T16:02:40;8.20;86.50
16955;DHT22;8594;52.052;8.354;2023-02-08T16:05:17;8.20;86.00
16955;DHT22;8594;52.052;8.354;2023-02-08T16:07:47;8.10;86.40
16955;DHT22;8594;52.052;8.354;2023-02-08T16:10:23;8.00;86.70
16955;DHT22;8594;52.052;8.354;2023-02-08T16:13:01;8.00;87.10
16955;DHT22;8594;52.052;8.354;2023-02-08T16:15:40;7.90;87.60
16955;DHT22;8594;52.052;8.354;2023-02-08T16:18:37;7.80;88.60
16955;DHT22;8594;52.052;8.354;2023-02-08T16:21:17;7.70;88.50
16955;DHT22;8594;52.052;8.354;2023-02-08T16:23:50;7.70;89.60
16955;DHT22;8594;52.052;8.354;2023-02-08T16:26:21;7.50;89.10
16955;DHT22;8594;52.052;8.354;2023-02-08T16:28:54;7.40;90.10
16955;DHT22;8594;52.052;8.354;2023-02-08T16:31:24;7.30;90.20
16955;DHT22;8594;52.052;8.354;2023-02-08T16:34:03;7.40;90.30
16955;DHT22;8594;52.052;8.354;2023-02-08T16:36:39;7.40;90.10
16955;DHT22;8594;52.052;8.354;2023-02-08T16:39:35;7.40;90.20
16955;DHT22;8594;52.052;8.354;2023-02-08T16:42:19;7.40;90.00
16955;DHT22;8594;52.052;8.354;2023-02-08T16:45:18;7.30;90.40
16955;DHT22;8594;52.052;8.354;2023-02-08T16:47:49;7.20;90.40
16955;DHT22;8594;52.052;8.354;2023-02-08T16:50:19;7.10;90.50